Time;durP1;ratioP1;P1;durP2;ratioP2;P2;SDS_P1;SDS_P2;PMS_P1;PMS_P2;Temp;Humidity;BMP_temperature;BMP_pressure;BME280_temperature;BME280_humidity;BME280_pressure;Samples;Min_cycle;Max_cycle;Signal;HPM_P1;HPM_P2
2022/05/25 00:01:45;;;;;;;17.10;12.07;;;;;;;;;;5094399;28;20429;-67
2022/05/25 00:04:13;;;;;;;14.18;12.20;;;;;;;;;;5094538;28;20036;-67
2022/05/25 00:06:40;;;;;;;15.32;11.50;;;;;;;;;;5094278;28;20047;-67
2022/05/25 00:09:08;;;;;;;15.25;11.55;;;;;;;;;;5094246;28;20036;-67
2022/05/25 00:11:35;;;;;;;14.80;11.88;;;;;;;;;;5094149;28;20097;-67
2022/05/25 00:14:04;;;;;;;16.08;11.18;;;;;;;;;;5094223;28;20044;-68
2022/05/25 00:16:31;;;;;;;14.43;11.50;;;;;;;;;;5094259;28;20520;-68
2022/05/25 00:21:45;;;;;;;16.75;11.25;;;;;;;;;;5093869;28;20047;-67
2022/05/25 00:24:13;;;;;;;12.48;11.18;;;;;;;;;;5094364;28;20412;-67
2022/05/25 00:26:40;;;;;;;12.50;10.70;;;;;;;;;;5094281;28;20123;-67
2022/05/25 00:29:07;;;;;;;16.15;12.00;;;;;;;;;;5093793;28;20036;-67
2022/05/25 00:31:36;;;;;;;16.50;12.05;;;;;;;;;;5093837;28;20044;-67
2022/05/25 00:34:03;;;;;;;12.57;11.35;;;;;;;;;;5093732;28;20044;-67
2022/05/25 00:36:31;;;;;;;13.50;12.10;;;;;;;;;;5075768;28;20047;-67
2022/05/25 00:38:59;;;;;;;16.00;12.00;;;;;;;;;;5093589;28;20047;-67
2022/05/25 00:41:30;;;;;;;14.32;11.68;;;;;;;;;;5093649;28;20048;-67
2022/05/25 00:43:58;;;;;;;17.75;11.75;;;;;;;;;;5093743;28;20082;-67
2022/05/25 00:46:27;;;;;;;17.20;12.23;;;;;;;;;;5093621;28;20043;-67
2022/05/25 00:48:59;;;;;;;12.95;11.27;;;;;;;;;;5093481;28;20046;-67
2022/05/25 00:51:34;;;;;;;14.52;12.40;;;;;;;;;;5092802;28;20050;-67
2022/05/25 00:54:03;;;;;;;17.52;13.63;;;;;;;;;;5093744;28;20443;-67
2022/05/25 00:56:32;;;;;;;14.57;11.95;;;;;;;;;;5093267;28;20040;-67
2022/05/25 00:59:04;;;;;;;39.83;28.73;;;;;;;;;;5093423;28;20071;-67
2022/05/25 01:01:32;;;;;;;39.63;26.13;;;;;;;;;;5093481;28;20070;-67
2022/05/25 01:03:59;;;;;;;44.20;32.05;;;;;;;;;;5093285;28;20090;-67
2022/05/25 01:06:39;;;;;;;16.88;12.60;;;;;;;;;;5093211;28;20040;-67
2022/05/25 01:09:07;;;;;;;18.95;14.95;;;;;;;;;;5093264;28;20054;-68
2022/05/25 01:11:43;;;;;;;39.30;26.75;;;;;;;;;;5093204;28;20043;-67
2022/05/25 01:14:22;;;;;;;15.32;12.70;;;;;;;;;;5093014;28;20036;-68
2022/05/25 01:16:50;;;;;;;17.77;12.85;;;;;;;;;;5093081;28;20044;-67
2022/05/25 01:19:20;;;;;;;25.52;18.73;;;;;;;;;;5093080;28;20093;-67
2022/05/25 01:22:05;;;;;;;13.98;12.10;;;;;;;;;;5092841;28;20119;-67
2022/05/25 01:24:33;;;;;;;17.65;12.63;;;;;;;;;;5093055;28;20067;-67
2022/05/25 01:27:09;;;;;;;15.13;12.48;;;;;;;;;;5093084;28;20036;-68
2022/05/25 01:29:49;;;;;;;20.92;15.57;;;;;;;;;;5092731;28;20094;-67
2022/05/25 01:32:21;;;;;;;24.45;14.80;;;;;;;;;;5092747;28;20047;-68
2022/05/25 01:35:00;;;;;;;24.88;17.73;;;;;;;;;;5092832;28;20073;-67
2022/05/25 01:37:34;;;;;;;26.75;19.40;;;;;;;;;;5092746;28;20089;-67
2022/05/25 01:40:07;;;;;;;16.75;13.30;;;;;;;;;;5092426;28;20051;-68
2022/05/25 01:42:39;;;;;;;20.88;14.75;;;;;;;;;;5092548;28;20032;-67
2022/05/25 01:45:08;;;;;;;18.80;13.52;;;;;;;;;;5092607;28;20036;-67
2022/05/25 01:47:38;;;;;;;15.68;13.00;;;;;;;;;;5092623;28;20040;-67
2022/05/25 01:50:08;;;;;;;19.95;13.40;;;;;;;;;;5092573;28;20076;-67
2022/05/25 01:52:39;;;;;;;19.02;12.93;;;;;;;;;;5092496;28;20086;-67
2022/05/25 01:55:09;;;;;;;15.65;13.38;;;;;;;;;;5092698;28;20093;-67
2022/05/25 01:57:39;;;;;;;17.38;12.77;;;;;;;;;;5092551;28;20089;-67
2022/05/25 02:00:07;;;;;;;21.83;16.05;;;;;;;;;;5092523;28;20036;-67
2022/05/25 02:05:21;;;;;;;18.98;14.32;;;;;;;;;;5096774;28;20119;-67
2022/05/25 02:07:51;;;;;;;16.33;12.80;;;;;;;;;;5096503;28;20056;-67
2022/05/25 02:10:25;;;;;;;19.38;12.85;;;;;;;;;;5078542;28;20040;-67
2022/05/25 02:13:11;;;;;;;19.17;14.15;;;;;;;;;;5096821;28;20044;-67
2022/05/25 02:15:45;;;;;;;14.95;13.30;;;;;;;;;;5096365;28;20060;-67
2022/05/25 02:18:31;;;;;;;16.40;13.30;;;;;;;;;;5096519;28;20075;-67
2022/05/25 02:21:06;;;;;;;18.65;14.20;;;;;;;;;;5096779;28;20135;-67
2022/05/25 02:23:46;;;;;;;17.25;13.15;;;;;;;;;;5096395;28;20044;-67
2022/05/25 02:26:17;;;;;;;14.80;13.30;;;;;;;;;;5096142;28;20064;-67
2022/05/25 02:28:48;;;;;;;18.33;13.98;;;;;;;;;;5096554;28;20040;-67
2022/05/25 02:31:19;;;;;;;20.83;13.88;;;;;;;;;;5096269;28;20047;-67
2022/05/25 02:33:49;;;;;;;17.10;12.75;;;;;;;;;;5095846;28;20044;-68
2022/05/25 02:36:17;;;;;;;17.98;12.98;;;;;;;;;;5096134;28;20102;-67
2022/05/25 02:38:45;;;;;;;32.03;20.42;;;;;;;;;;5096017;28;20044;-67
2022/05/25 02:41:25;;;;;;;21.33;15.60;;;;;;;;;;5096151;28;20068;-67
2022/05/25 02:43:53;;;;;;;17.98;12.85;;;;;;;;;;5095788;28;20044;-68
2022/05/25 02:46:20;;;;;;;16.75;12.82;;;;;;;;;;5077964;28;20098;-67
2022/05/25 02:48:48;;;;;;;18.13;13.18;;;;;;;;;;5095888;28;20115;-67
2022/05/25 02:51:16;;;;;;;19.42;13.88;;;;;;;;;;5095807;28;20040;-67
2022/05/25 02:53:43;;;;;;;21.17;14.15;;;;;;;;;;5095478;28;20044;-67
2022/05/25 02:56:11;;;;;;;18.00;13.00;;;;;;;;;;5095869;28;20040;-67
2022/05/25 02:58:38;;;;;;;19.38;13.88;;;;;;;;;;5095844;28;20036;-67
2022/05/25 03:01:06;;;;;;;23.70;15.02;;;;;;;;;;5095491;28;20040;-67
2022/05/25 03:03:35;;;;;;;18.75;14.38;;;;;;;;;;5095585;28;20116;-67
2022/05/25 03:06:04;;;;;;;20.45;14.10;;;;;;;;;;5095579;28;20138;-67
2022/05/25 03:08:32;;;;;;;16.35;13.98;;;;;;;;;;5095404;28;20040;-67
2022/05/25 03:10:59;;;;;;;18.40;13.50;;;;;;;;;;5095384;28;20039;-68
2022/05/25 03:13:27;;;;;;;19.05;12.23;;;;;;;;;;5076583;28;20040;-67
2022/05/25 03:15:57;;;;;;;16.30;12.45;;;;;;;;;;5095259;28;20047;-67
2022/05/25 03:18:24;;;;;;;19.00;13.48;;;;;;;;;;5077025;28;20044;-67
2022/05/25 03:20:52;;;;;;;15.13;12.48;;;;;;;;;;5095228;28;20097;-67
2022/05/25 03:23:20;;;;;;;15.13;11.95;;;;;;;;;;5095562;28;20044;-67
2022/05/25 03:25:47;;;;;;;22.38;15.88;;;;;;;;;;5095128;28;20052;-67
2022/05/25 03:28:15;;;;;;;16.75;13.45;;;;;;;;;;5095151;28;20036;-67
2022/05/25 03:30:44;;;;;;;16.27;12.13;;;;;;;;;;5094859;28;20047;-67
2022/05/25 03:33:11;;;;;;;20.63;13.35;;;;;;;;;;5094800;28;20052;-68
2022/05/25 03:35:39;;;;;;;15.52;11.60;;;;;;;;;;5095053;28;20040;-67
2022/05/25 03:38:06;;;;;;;16.65;11.55;;;;;;;;;;5095010;28;20436;-67
2022/05/25 03:40:34;;;;;;;15.60;11.32;;;;;;;;;;5094593;28;20388;-68
2022/05/25 03:43:01;;;;;;;15.93;11.63;;;;;;;;;;5094832;28;20048;-67
2022/05/25 03:45:29;;;;;;;15.90;11.13;;;;;;;;;;5093658;28;20040;-67
2022/05/25 03:47:56;;;;;;;15.52;11.50;;;;;;;;;;5094614;28;20036;-68
2022/05/25 03:50:24;;;;;;;14.75;11.95;;;;;;;;;;5076323;28;20511;-68
2022/05/25 03:52:51;;;;;;;14.60;11.35;;;;;;;;;;5094642;28;20125;-67
2022/05/25 03:55:19;;;;;;;12.98;10.07;;;;;;;;;;5093513;28;20047;-67
2022/05/25 03:57:46;;;;;;;15.43;10.80;;;;;;;;;;5094569;28;20374;-65
2022/05/25 04:00:14;;;;;;;12.07;10.82;;;;;;;;;;5094459;28;20063;-67
2022/05/25 04:02:41;;;;;;;16.65;11.70;;;;;;;;;;5093967;28;20042;-66
2022/05/25 04:05:09;;;;;;;13.32;10.27;;;;;;;;;;5094332;28;20079;-65
2022/05/25 04:07:41;;;;;;;12.63;10.00;;;;;;;;;;5076347;28;20119;-66
2022/05/25 04:10:12;;;;;;;16.25;11.38;;;;;;;;;;5094251;28;20538;-67
2022/05/25 04:12:41;;;;;;;14.32;10.13;;;;;;;;;;5094232;28;20112;-66
2022/05/25 04:15:09;;;;;;;18.13;10.85;;;;;;;;;;5094249;28;20036;-67
2022/05/25 04:17:36;;;;;;;15.63;10.57;;;;;;;;;;5094166;28;20093;-67
2022/05/25 04:20:05;;;;;;;14.43;10.40;;;;;;;;;;5094077;28;20051;-67
2022/05/25 04:22:32;;;;;;;13.65;8.98;;;;;;;;;;5094092;28;20040;-66
2022/05/25 04:25:01;;;;;;;14.30;9.82;;;;;;;;;;5092852;28;20036;-66
2022/05/25 04:27:29;;;;;;;14.82;10.48;;;;;;;;;;5093719;28;20055;-67
2022/05/25 04:29:57;;;;;;;14.55;8.98;;;;;;;;;;5093891;28;20039;-66
2022/05/25 04:32:24;;;;;;;12.75;9.73;;;;;;;;;;5093264;28;20087;-66
2022/05/25 04:34:53;;;;;;;14.45;10.23;;;;;;;;;;5093528;28;20075;-66
2022/05/25 04:40:07;;;;;;;15.98;10.20;;;;;;;;;;5087342;28;20040;-66
2022/05/25 04:42:35;;;;;;;10.40;9.30;;;;;;;;;;5077293;28;20429;-66
2022/05/25 04:45:03;;;;;;;10.50;8.85;;;;;;;;;;5073326;28;20529;-66
2022/05/25 04:47:31;;;;;;;11.43;9.50;;;;;;;;;;5072349;28;20045;-66
2022/05/25 04:49:59;;;;;;;12.52;9.13;;;;;;;;;;5072741;28;20520;-68
2022/05/25 04:52:26;;;;;;;14.20;10.45;;;;;;;;;;5072966;28;20040;-66
2022/05/25 04:54:54;;;;;;;12.55;9.80;;;;;;;;;;5088775;28;20444;-66
2022/05/25 04:57:23;;;;;;;12.43;9.85;;;;;;;;;;5073430;28;20386;-68
2022/05/25 04:59:51;;;;;;;11.40;8.68;;;;;;;;;;5073133;28;20106;-68
2022/05/25 05:02:19;;;;;;;14.27;9.68;;;;;;;;;;5073146;28;20042;-67
2022/05/25 05:04:47;;;;;;;13.00;9.88;;;;;;;;;;5073055;28;20052;-67
2022/05/25 05:07:15;;;;;;;12.23;8.93;;;;;;;;;;5073027;28;20087;-67
2022/05/25 05:09:44;;;;;;;14.15;8.85;;;;;;;;;;5073009;28;20071;-67
2022/05/25 05:12:14;;;;;;;11.95;8.57;;;;;;;;;;5072843;28;20098;-67
2022/05/25 05:14:44;;;;;;;13.32;8.45;;;;;;;;;;5072970;28;20043;-66
2022/05/25 05:17:11;;;;;;;11.70;8.75;;;;;;;;;;5072875;28;20037;-68
2022/05/25 05:19:59;;;;;;;9.27;7.75;;;;;;;;;;5071635;28;20143;-65
2022/05/25 05:22:26;;;;;;;13.40;8.13;;;;;;;;;;5088369;28;20044;-66
2022/05/25 05:24:54;;;;;;;11.02;7.97;;;;;;;;;;5072707;28;20497;-66
2022/05/25 05:27:21;;;;;;;8.23;7.38;;;;;;;;;;5072570;28;20047;-66
2022/05/25 05:29:49;;;;;;;10.07;8.18;;;;;;;;;;5083750;28;20036;-66
2022/05/25 05:32:17;;;;;;;11.93;8.50;;;;;;;;;;5092543;28;20064;-65
2022/05/25 05:34:44;;;;;;;12.10;8.13;;;;;;;;;;5092959;28;20561;-65
2022/05/25 05:37:38;;;;;;;11.77;9.13;;;;;;;;;;5092748;28;20052;-65
2022/05/25 05:40:07;;;;;;;13.10;10.13;;;;;;;;;;5089087;28;20055;-66
2022/05/25 05:42:36;;;;;;;14.45;9.77;;;;;;;;;;5092648;28;20042;-66
2022/05/25 05:45:15;;;;;;;11.88;9.35;;;;;;;;;;5092815;28;20449;-66
2022/05/25 05:47:55;;;;;;;12.80;8.23;;;;;;;;;;5093024;28;20134;-66
2022/05/25 05:50:24;;;;;;;8.45;7.28;;;;;;;;;;5092608;28;20048;-66
2022/05/25 05:52:52;;;;;;;9.60;6.47;;;;;;;;;;5092635;28;20048;-66
2022/05/25 05:55:20;;;;;;;9.00;6.55;;;;;;;;;;5092569;28;20048;-66
2022/05/25 05:57:47;;;;;;;8.13;6.55;;;;;;;;;;5092612;28;20044;-66
2022/05/25 06:00:15;;;;;;;9.43;6.63;;;;;;;;;;5092559;28;20044;-66
2022/05/25 06:02:43;;;;;;;10.98;6.35;;;;;;;;;;5092620;28;20044;-66
2022/05/25 06:05:12;;;;;;;9.90;7.05;;;;;;;;;;5092551;28;20036;-67
2022/05/25 06:07:39;;;;;;;10.65;6.40;;;;;;;;;;5092503;28;20435;-66
2022/05/25 06:10:07;;;;;;;8.75;6.40;;;;;;;;;;5092551;28;20070;-66
2022/05/25 06:12:41;;;;;;;10.40;6.38;;;;;;;;;;5075712;28;20051;-67
2022/05/25 06:20:41;;;;;;;9.52;7.47;;;;;;;;;;5092474;28;20474;-66
2022/05/25 06:23:09;;;;;;;10.73;6.85;;;;;;;;;;5092352;28;20048;-67
2022/05/25 06:25:36;;;;;;;6.47;5.88;;;;;;;;;;5092227;28;20044;-67
2022/05/25 06:28:04;;;;;;;9.27;6.07;;;;;;;;;;5092374;28;20102;-66
2022/05/25 06:30:31;;;;;;;8.65;5.57;;;;;;;;;;5092358;28;20537;-66
2022/05/25 06:32:59;;;;;;;7.18;5.82;;;;;;;;;;5092068;28;20052;-66
2022/05/25 06:35:26;;;;;;;7.28;6.30;;;;;;;;;;5092606;28;20136;-66
2022/05/25 06:37:54;;;;;;;7.93;5.85;;;;;;;;;;5092201;28;20107;-66
2022/05/25 06:40:21;;;;;;;6.07;5.22;;;;;;;;;;5092501;28;20044;-66
2022/05/25 06:42:51;;;;;;;6.80;6.10;;;;;;;;;;5074319;28;20106;-66
2022/05/25 06:45:22;;;;;;;7.47;6.03;;;;;;;;;;5092041;28;20123;-66
2022/05/25 06:47:49;;;;;;;8.52;5.93;;;;;;;;;;5092034;28;20123;-66
2022/05/25 06:50:17;;;;;;;10.60;6.18;;;;;;;;;;5095707;28;20035;-66
2022/05/25 06:52:44;;;;;;;9.32;6.22;;;;;;;;;;5095741;28;20075;-66
2022/05/25 06:55:12;;;;;;;9.40;5.65;;;;;;;;;;5095789;28;20393;-65
2022/05/25 06:57:40;;;;;;;7.03;5.53;;;;;;;;;;5095660;28;20056;-66
2022/05/25 07:00:08;;;;;;;7.20;6.40;;;;;;;;;;5095719;28;20413;-66
2022/05/25 07:02:35;;;;;;;6.10;5.30;;;;;;;;;;5095748;28;20129;-66
2022/05/25 07:05:03;;;;;;;11.32;8.70;;;;;;;;;;5095773;28;20043;-66
2022/05/25 07:07:31;;;;;;;29.75;23.00;;;;;;;;;;5095554;28;20040;-66
2022/05/25 07:09:58;;;;;;;7.38;4.95;;;;;;;;;;5095480;28;20048;-67
2022/05/25 07:12:26;;;;;;;5.40;4.60;;;;;;;;;;5095434;28;20099;-66
2022/05/25 07:14:53;;;;;;;7.38;4.53;;;;;;;;;;5095349;28;20039;-65
2022/05/25 07:17:21;;;;;;;6.18;4.53;;;;;;;;;;5095510;28;20051;-66
2022/05/25 07:19:48;;;;;;;5.10;4.10;;;;;;;;;;5095484;28;20486;-66
2022/05/25 07:22:17;;;;;;;6.22;4.43;;;;;;;;;;5095362;28;20040;-66
2022/05/25 07:24:46;;;;;;;6.40;4.30;;;;;;;;;;5095378;28;20040;-66
2022/05/25 07:27:13;;;;;;;6.35;4.63;;;;;;;;;;5095304;28;20052;-66
2022/05/25 07:29:41;;;;;;;7.78;4.97;;;;;;;;;;5095156;28;20098;-66
2022/05/25 07:32:11;;;;;;;8.88;4.70;;;;;;;;;;5094859;28;20051;-66
2022/05/25 07:34:47;;;;;;;6.38;4.50;;;;;;;;;;5095178;28;20036;-66
2022/05/25 07:37:16;;;;;;;8.27;6.40;;;;;;;;;;5095084;28;20040;-66
2022/05/25 07:39:52;;;;;;;6.20;4.00;;;;;;;;;;5094892;28;20040;-66
2022/05/25 07:42:21;;;;;;;20.48;18.33;;;;;;;;;;5094822;28;20048;-66
2022/05/25 07:44:52;;;;;;;9.20;6.55;;;;;;;;;;5094868;28;20043;-66
2022/05/25 07:47:20;;;;;;;6.50;4.00;;;;;;;;;;5094892;28;20052;-66
2022/05/25 07:49:47;;;;;;;8.07;4.53;;;;;;;;;;5076917;28;20551;-66
2022/05/25 07:52:15;;;;;;;5.60;3.70;;;;;;;;;;5094936;28;20052;-66
2022/05/25 07:54:44;;;;;;;5.13;3.80;;;;;;;;;;5076576;28;20040;-66
2022/05/25 07:57:12;;;;;;;4.50;3.60;;;;;;;;;;5094753;28;20076;-67
2022/05/25 07:59:40;;;;;;;4.43;3.40;;;;;;;;;;5076333;28;20036;-67
2022/05/25 08:08:03;;;;;;;5.80;3.30;;;;;;;;;;5076322;28;20044;-67
2022/05/25 08:10:31;;;;;;;8.65;4.13;;;;;;;;;;5094375;28;20043;-67
2022/05/25 08:13:00;;;;;;;5.80;3.70;;;;;;;;;;5094331;28;20054;-67
2022/05/25 08:15:29;;;;;;;5.25;3.05;;;;;;;;;;5094331;28;20101;-67
2022/05/25 08:17:56;;;;;;;4.00;2.95;;;;;;;;;;5094262;28;20512;-67
2022/05/25 08:20:24;;;;;;;6.22;3.30;;;;;;;;;;5094266;28;20040;-65
2022/05/25 08:22:51;;;;;;;4.95;2.65;;;;;;;;;;5094204;28;20451;-67
2022/05/25 08:25:20;;;;;;;3.25;2.80;;;;;;;;;;5094144;28;20493;-67
2022/05/25 08:27:47;;;;;;;7.40;3.38;;;;;;;;;;5094123;28;20094;-67
2022/05/25 08:30:17;;;;;;;3.65;2.42;;;;;;;;;;5093887;28;20040;-65
2022/05/25 08:32:45;;;;;;;3.90;2.40;;;;;;;;;;5093757;28;20147;-67
2022/05/25 08:35:13;;;;;;;4.30;2.53;;;;;;;;;;5094035;28;20205;-67
2022/05/25 08:37:41;;;;;;;5.40;3.28;;;;;;;;;;5075766;28;20039;-66
2022/05/25 08:40:10;;;;;;;4.32;3.08;;;;;;;;;;5094077;28;20050;-67
2022/05/25 08:42:55;;;;;;;4.85;3.10;;;;;;;;;;5075556;28;20424;-67
2022/05/25 08:45:24;;;;;;;4.43;2.60;;;;;;;;;;5093900;28;20090;-65
2022/05/25 08:47:58;;;;;;;5.07;4.50;;;;;;;;;;5093969;28;20064;-65
2022/05/25 08:50:25;;;;;;;5.50;3.45;;;;;;;;;;5093525;28;20054;-67
2022/05/25 08:53:01;;;;;;;7.55;4.72;;;;;;;;;;5093556;28;20043;-66
2022/05/25 08:55:48;;;;;;;7.40;5.85;;;;;;;;;;5093803;28;20085;-66
2022/05/25 08:58:17;;;;;;;5.15;3.40;;;;;;;;;;5093239;28;20040;-66
2022/05/25 09:00:46;;;;;;;13.02;3.40;;;;;;;;;;5093184;28;20063;-66
2022/05/25 09:03:17;;;;;;;4.95;3.67;;;;;;;;;;5093366;28;20048;-65
2022/05/25 09:05:47;;;;;;;3.75;2.72;;;;;;;;;;5093353;28;20459;-65
2022/05/25 09:08:26;;;;;;;5.50;4.05;;;;;;;;;;5093423;28;20036;-65
2022/05/25 09:10:55;;;;;;;9.57;3.80;;;;;;;;;;5092610;28;20054;-65
2022/05/25 09:13:28;;;;;;;7.00;4.75;;;;;;;;;;5093239;28;20086;-65
2022/05/25 09:18:46;;;;;;;22.25;19.92;;;;;;;;;;5093193;28;20040;-65
2022/05/25 09:21:14;;;;;;;5.65;3.10;;;;;;;;;;5093059;28;20058;-65
2022/05/25 09:23:42;;;;;;;3.33;2.20;;;;;;;;;;5092882;28;20193;-65
2022/05/25 09:26:09;;;;;;;3.22;2.10;;;;;;;;;;5093042;28;20044;-66
2022/05/25 09:28:39;;;;;;;4.65;2.65;;;;;;;;;;5093122;28;20032;-65
2022/05/25 09:31:07;;;;;;;3.55;2.70;;;;;;;;;;5092688;28;20040;-66
2022/05/25 09:33:36;;;;;;;3.15;2.30;;;;;;;;;;5092829;28;20048;-66
2022/05/25 09:36:08;;;;;;;4.65;2.78;;;;;;;;;;5092952;28;20044;-65
2022/05/25 09:38:42;;;;;;;4.63;2.80;;;;;;;;;;5093095;28;20401;-65
2022/05/25 09:41:12;;;;;;;3.17;2.70;;;;;;;;;;5092599;28;20093;-66
2022/05/25 09:43:40;;;;;;;5.22;3.03;;;;;;;;;;5092885;28;20430;-65
2022/05/25 09:46:10;;;;;;;5.03;2.60;;;;;;;;;;5092821;28;20043;-65
2022/05/25 09:48:47;;;;;;;5.13;2.58;;;;;;;;;;5092766;28;20044;-66
2022/05/25 09:51:33;;;;;;;7.13;5.03;;;;;;;;;;5092737;28;20109;-66
2022/05/25 09:54:03;;;;;;;3.63;2.50;;;;;;;;;;5092684;28;20046;-66
2022/05/25 09:56:38;;;;;;;4.07;2.17;;;;;;;;;;5092736;28;20044;-66
2022/05/25 09:59:08;;;;;;;5.50;2.50;;;;;;;;;;5074954;28;20127;-66
2022/05/25 10:01:43;;;;;;;3.08;2.60;;;;;;;;;;5092600;28;20099;-66
2022/05/25 10:04:14;;;;;;;3.33;2.50;;;;;;;;;;5092703;28;20390;-66
2022/05/25 10:06:52;;;;;;;5.57;2.95;;;;;;;;;;5092770;28;20385;-66
2022/05/25 10:09:27;;;;;;;3.47;2.72;;;;;;;;;;5092558;28;20048;-66
2022/05/25 10:11:57;;;;;;;4.80;2.53;;;;;;;;;;5092253;28;20040;-66
2022/05/25 10:14:33;;;;;;;3.38;2.63;;;;;;;;;;5092467;28;20044;-66
2022/05/25 10:17:11;;;;;;;3.10;2.47;;;;;;;;;;5092294;28;20119;-66
2022/05/25 10:19:46;;;;;;;4.25;2.60;;;;;;;;;;5092321;28;20054;-66
2022/05/25 10:22:26;;;;;;;10.32;6.78;;;;;;;;;;5092644;28;20048;-66
2022/05/25 10:25:02;;;;;;;6.68;2.80;;;;;;;;;;5096748;28;20048;-66
2022/05/25 10:27:35;;;;;;;4.78;3.42;;;;;;;;;;5096447;28;20054;-66
2022/05/25 10:38:51;;;;;;;4.25;2.63;;;;;;;;;;5096194;28;20072;-66
2022/05/25 10:41:39;;;;;;;4.13;2.85;;;;;;;;;;5095917;28;20421;-66
2022/05/25 10:44:12;;;;;;;4.18;2.80;;;;;;;;;;5096067;28;20049;-66
2022/05/25 10:46:41;;;;;;;5.55;3.13;;;;;;;;;;5095971;28;20040;-66
2022/05/25 10:49:28;;;;;;;5.28;2.97;;;;;;;;;;5096018;28;20076;-66
2022/05/25 10:52:00;;;;;;;5.53;3.80;;;;;;;;;;5095829;28;20056;-66
2022/05/25 10:54:49;;;;;;;5.63;2.95;;;;;;;;;;5095944;28;20048;-66
2022/05/25 10:57:17;;;;;;;6.07;2.83;;;;;;;;;;5095661;28;20046;-66
2022/05/25 10:59:50;;;;;;;4.10;3.00;;;;;;;;;;5095874;28;20043;-66
2022/05/25 11:02:20;;;;;;;5.38;3.40;;;;;;;;;;5095803;28;20069;-66
2022/05/25 11:05:02;;;;;;;24.05;18.20;;;;;;;;;;5095985;28;20040;-66
2022/05/25 11:07:33;;;;;;;7.43;3.17;;;;;;;;;;5095752;28;20397;-66
2022/05/25 11:10:13;;;;;;;3.63;2.70;;;;;;;;;;5095606;28;20513;-66
2022/05/25 11:12:59;;;;;;;6.03;2.90;;;;;;;;;;5095446;28;20079;-66
2022/05/25 11:15:45;;;;;;;5.00;3.28;;;;;;;;;;5095461;28;20489;-66
2022/05/25 11:18:16;;;;;;;3.42;2.72;;;;;;;;;;5095647;28;20367;-66
2022/05/25 11:20:56;;;;;;;5.47;3.15;;;;;;;;;;5095435;28;20040;-66
2022/05/25 11:23:42;;;;;;;3.83;2.70;;;;;;;;;;5095109;28;20044;-66
2022/05/25 11:26:09;;;;;;;4.22;3.00;;;;;;;;;;5095327;28;20071;-66
2022/05/25 11:29:09;;;;;;;5.78;3.00;;;;;;;;;;5095222;28;20071;-66
2022/05/25 11:31:43;;;;;;;3.95;2.80;;;;;;;;;;5095150;28;20485;-66
2022/05/25 11:34:11;;;;;;;6.17;3.03;;;;;;;;;;5094379;28;20048;-66
2022/05/25 11:37:06;;;;;;;3.42;3.00;;;;;;;;;;5095016;28;20710;-66
2022/05/25 11:39:52;;;;;;;6.00;3.00;;;;;;;;;;5095043;28;20046;-66
2022/05/25 11:42:20;;;;;;;9.48;3.50;;;;;;;;;;5094735;28;20040;-66
2022/05/25 11:44:49;;;;;;;10.85;3.78;;;;;;;;;;5094851;28;20036;-66
2022/05/25 11:47:20;;;;;;;5.35;2.97;;;;;;;;;;5094916;28;20040;-66
2022/05/25 11:50:08;;;;;;;6.13;3.28;;;;;;;;;;5094751;28;20039;-66
2022/05/25 11:52:45;;;;;;;4.90;3.10;;;;;;;;;;5094651;28;20076;-66
2022/05/25 11:55:21;;;;;;;6.13;3.28;;;;;;;;;;5094537;28;20105;-66
2022/05/25 11:58:04;;;;;;;7.78;3.60;;;;;;;;;;5094715;28;20036;-66
2022/05/25 12:00:34;;;;;;;5.32;3.25;;;;;;;;;;5094670;28;20044;-66
2022/05/25 12:03:21;;;;;;;4.32;3.00;;;;;;;;;;5094782;28;20111;-66
2022/05/25 12:06:07;;;;;;;5.20;3.63;;;;;;;;;;5094818;28;20037;-66
2022/05/25 12:08:37;;;;;;;3.50;2.97;;;;;;;;;;5094513;28;20130;-66
2022/05/25 12:11:08;;;;;;;6.25;4.63;;;;;;;;;;5094388;28;20047;-66
2022/05/25 12:13:35;;;;;;;8.05;3.70;;;;;;;;;;5094346;28;20051;-66
2022/05/25 12:16:23;;;;;;;6.47;3.50;;;;;;;;;;5094282;28;20496;-66
2022/05/25 12:19:11;;;;;;;7.82;4.05;;;;;;;;;;5094139;28;20036;-66
2022/05/25 12:21:40;;;;;;;3.72;3.10;;;;;;;;;;5094227;28;20127;-66
2022/05/25 12:24:12;;;;;;;4.47;3.10;;;;;;;;;;5094034;28;20036;-66
2022/05/25 12:26:39;;;;;;;5.43;3.30;;;;;;;;;;5094344;28;20032;-66
2022/05/25 12:29:07;;;;;;;6.97;2.95;;;;;;;;;;5094092;28;20040;-66
2022/05/25 12:31:35;;;;;;;8.35;3.60;;;;;;;;;;5093878;28;20077;-66
2022/05/25 12:34:03;;;;;;;4.60;3.42;;;;;;;;;;5093762;28;20051;-66
2022/05/25 12:36:32;;;;;;;4.13;3.40;;;;;;;;;;5076082;28;20495;-65
2022/05/25 12:38:59;;;;;;;4.57;3.35;;;;;;;;;;5093941;28;20493;-65
2022/05/25 12:41:35;;;;;;;6.25;3.63;;;;;;;;;;5093873;28;20032;-65
2022/05/25 12:49:45;;;;;;;5.25;3.60;;;;;;;;;;5093795;28;20043;-65
2022/05/25 12:52:36;;;;;;;5.43;3.00;;;;;;;;;;5093618;28;20135;-65
2022/05/25 12:55:07;;;;;;;5.20;3.33;;;;;;;;;;5065792;28;20048;-65
2022/05/25 12:57:41;;;;;;;5.90;3.60;;;;;;;;;;5092557;28;20032;-66
2022/05/25 13:00:20;;;;;;;5.85;3.50;;;;;;;;;;5093377;28;20305;-65
2022/05/25 13:02:48;;;;;;;8.18;3.70;;;;;;;;;;5093070;28;20074;-66
2022/05/25 13:05:34;;;;;;;5.35;3.88;;;;;;;;;;5075340;28;20047;-62
2022/05/25 13:08:02;;;;;;;7.82;4.88;;;;;;;;;;5092956;28;20036;-66
2022/05/25 13:10:32;;;;;;;5.30;4.40;;;;;;;;;;5093153;28;20048;-65
2022/05/25 13:13:19;;;;;;;7.28;3.80;;;;;;;;;;5091605;28;20076;-66
2022/05/25 13:15:47;;;;;;;7.85;4.05;;;;;;;;;;5092670;28;20036;-66
2022/05/25 13:18:33;;;;;;;5.68;4.13;;;;;;;;;;5092374;28;20070;-66
2022/05/25 13:21:01;;;;;;;5.35;3.65;;;;;;;;;;5092597;28;20039;-66
2022/05/25 13:24:04;;;;;;;6.70;3.92;;;;;;;;;;5092232;28;20044;-66
2022/05/25 13:26:41;;;;;;;7.10;3.85;;;;;;;;;;5074527;28;20052;-66
2022/05/25 13:29:11;;;;;;;8.05;4.63;;;;;;;;;;5092578;28;20035;-66
2022/05/25 13:31:38;;;;;;;4.93;3.30;;;;;;;;;;5092619;28;20039;-66
2022/05/25 13:34:10;;;;;;;8.40;5.03;;;;;;;;;;5092101;28;20048;-66
2022/05/25 13:36:49;;;;;;;8.45;3.72;;;;;;;;;;5075011;28;20408;-66
2022/05/25 13:39:18;;;;;;;6.90;3.70;;;;;;;;;;5092680;28;20078;-66
2022/05/25 13:41:55;;;;;;;4.85;3.35;;;;;;;;;;5092707;28;20044;-66
2022/05/25 13:44:27;;;;;;;6.28;3.60;;;;;;;;;;5092239;28;20076;-66
2022/05/25 13:46:55;;;;;;;8.88;4.38;;;;;;;;;;5091253;28;20061;-66
2022/05/25 13:49:31;;;;;;;12.48;4.38;;;;;;;;;;5091349;28;20058;-65
2022/05/25 13:52:08;;;;;;;8.88;3.92;;;;;;;;;;5092492;28;20156;-66
2022/05/25 13:54:37;;;;;;;6.50;3.92;;;;;;;;;;5091758;28;20809;-65
2022/05/25 13:57:10;;;;;;;;;;;;;;;;;;5092283;28;20576;-65
2022/05/25 13:59:39;;;;;;;5.15;3.60;;;;;;;;;;5091963;28;19924;-65
2022/05/25 14:02:25;;;;;;;7.70;3.92;;;;;;;;;;5092212;28;20082;-66
2022/05/25 14:04:54;;;;;;;5.05;3.65;;;;;;;;;;5092011;28;20450;-66
2022/05/25 14:07:30;;;;;;;6.55;4.60;;;;;;;;;;5092192;28;20081;-66
2022/05/25 14:12:47;;;;;;;7.18;4.00;;;;;;;;;;5092019;28;20134;-65
2022/05/25 14:15:20;;;;;;;6.40;4.00;;;;;;;;;;5092218;28;20051;-65
2022/05/25 14:17:54;;;;;;;5.85;3.50;;;;;;;;;;5092030;28;20071;-63
2022/05/25 14:20:22;;;;;;;;;;;;;;;;;;5092542;28;20089;-65
2022/05/25 14:22:50;;;;;;;7.65;4.53;;;;;;;;;;5092063;28;20381;-65
2022/05/25 14:25:20;;;;;;;7.63;4.90;;;;;;;;;;5091125;28;20089;-65
2022/05/25 14:27:48;;;;;;;6.95;4.72;;;;;;;;;;5091634;28;20076;-66
2022/05/25 14:30:28;;;;;;;7.60;5.50;;;;;;;;;;5091811;28;20993;-66
2022/05/25 14:33:06;;;;;;;7.43;4.75;;;;;;;;;;5091720;28;20083;-68
2022/05/25 14:35:34;;;;;;;6.28;4.20;;;;;;;;;;5092095;28;20028;-68
2022/05/25 14:38:03;;;;;;;7.07;4.22;;;;;;;;;;5091984;28;20062;-68
2022/05/25 14:40:54;;;;;;;5.93;4.00;;;;;;;;;;5077004;28;20046;-68
2022/05/25 14:43:39;;;;;;;7.75;4.40;;;;;;;;;;5091813;28;20064;-68
2022/05/25 14:46:15;;;;;;;7.35;4.72;;;;;;;;;;5073753;28;20094;-68
2022/05/25 14:48:47;;;;;;;7.43;4.85;;;;;;;;;;5091838;28;20047;-68
2022/05/25 14:51:18;;;;;;;7.38;4.25;;;;;;;;;;5091905;28;20117;-67
2022/05/25 14:53:46;;;;;;;9.25;4.18;;;;;;;;;;5091980;28;20085;-67
2022/05/25 14:56:29;;;;;;;7.47;4.65;;;;;;;;;;5091884;28;20047;-67
2022/05/25 14:58:57;;;;;;;6.55;3.83;;;;;;;;;;5091674;28;20036;-71
2022/05/25 15:01:35;;;;;;;7.07;4.00;;;;;;;;;;5090601;28;20497;-71
2022/05/25 15:04:05;;;;;;;7.15;4.50;;;;;;;;;;5091595;28;20047;-71
2022/05/25 15:06:39;;;;;;;5.45;4.03;;;;;;;;;;5089852;28;20043;-70
2022/05/25 15:09:11;;;;;;;5.18;3.60;;;;;;;;;;5091497;28;20032;-70
2022/05/25 15:11:43;;;;;;;7.45;4.15;;;;;;;;;;5094072;28;20036;-71
2022/05/25 15:20:15;;;;;;;9.75;4.40;;;;;;;;;;5093701;28;20047;-69
2022/05/25 15:22:56;;;;;;;7.97;3.85;;;;;;;;;;5095193;28;20348;-69
2022/05/25 15:25:45;;;;;;;6.22;3.97;;;;;;;;;;5094404;28;20060;-69
2022/05/25 15:28:14;;;;;;;6.68;4.22;;;;;;;;;;5094946;28;20050;-69
2022/05/25 15:30:47;;;;;;;9.05;4.75;;;;;;;;;;5095096;28;20036;-69
2022/05/25 15:33:16;;;;;;;5.87;3.97;;;;;;;;;;5094856;28;20052;-69
2022/05/25 15:35:44;;;;;;;7.43;4.00;;;;;;;;;;5095107;28;20044;-69
2022/05/25 15:38:12;;;;;;;6.00;3.83;;;;;;;;;;5095024;28;20043;-69
2022/05/25 15:40:40;;;;;;;7.40;4.25;;;;;;;;;;5094868;28;20054;-69
2022/05/25 15:43:09;;;;;;;6.90;4.07;;;;;;;;;;5094849;28;20043;-69
2022/05/25 15:45:38;;;;;;;6.25;3.88;;;;;;;;;;5094933;28;20040;-69